Time;durP1;ratioP1;P1;durP2;ratioP2;P2;SDS_P1;SDS_P2;PMS_P1;PMS_P2;Temp;Humidity;BMP_temperature;BMP_pressure;BME280_temperature;BME280_humidity;BME280_pressure;Samples;Min_cycle;Max_cycle;Signal;HPM_P1;HPM_P2
2022/01/09 00:00:36;;;;;;;22.07;7.85;;;;;;;3.71;77.84;101462.55;1853442;77;21050;-62
2022/01/09 00:03:06;;;;;;;27.60;10.93;;;;;;;3.66;77.97;101470.38;1851041;77;21057;-62
2022/01/09 00:05:35;;;;;;;33.23;10.58;;;;;;;3.63;77.99;101468.64;1853480;77;21119;-60
2022/01/09 00:08:04;;;;;;;25.90;9.68;;;;;;;3.65;77.96;101467.31;1853359;76;21116;-60
2022/01/09 00:10:34;;;;;;;30.60;10.43;;;;;;;3.69;77.83;101457.36;1853437;77;21192;-61
2022/01/09 00:13:04;;;;;;;29.40;10.10;;;;;;;3.72;77.72;101454.73;1851013;77;21115;-60
2022/01/09 00:15:32;;;;;;;30.43;11.93;;;;;;;3.73;77.66;101451.72;1853410;77;21488;-60
2022/01/09 00:18:01;;;;;;;28.42;10.85;;;;;;;3.75;77.58;101456.05;1853400;77;21461;-61
2022/01/09 00:20:30;;;;;;;33.92;11.50;;;;;;;3.77;77.54;101453.02;1849964;77;21057;-60
2022/01/09 00:22:59;;;;;;;31.15;12.15;;;;;;;3.78;77.47;101452.16;1818408;79;21171;-59
2022/01/09 00:25:28;;;;;;;30.02;11.08;;;;;;;3.80;77.43;101449.12;1818363;78;21586;-60
2022/01/09 00:27:57;;;;;;;30.90;11.70;;;;;;;3.82;77.37;101447.81;1820718;77;21104;-58
2022/01/09 00:30:26;;;;;;;30.00;10.82;;;;;;;3.81;77.33;101432.59;1818381;79;21488;-60
2022/01/09 00:32:55;;;;;;;31.20;12.23;;;;;;;3.82;77.30;101433.05;1820613;77;21133;-60
2022/01/09 00:35:24;;;;;;;28.57;11.22;;;;;;;3.81;77.31;101435.65;1818393;79;21525;-61
2022/01/09 00:37:52;;;;;;;30.62;11.88;;;;;;;3.81;77.30;101430.44;1820773;77;21057;-59
2022/01/09 00:40:21;;;;;;;29.30;10.32;;;;;;;3.80;77.29;101421.77;1820556;77;21184;-59
2022/01/09 00:42:50;;;;;;;29.35;10.38;;;;;;;3.79;77.29;101417.41;1853525;77;21054;-61
2022/01/09 00:45:19;;;;;;;33.58;11.55;;;;;;;3.77;77.28;101413.94;1831212;78;21614;-60
2022/01/09 00:47:47;;;;;;;28.15;11.20;;;;;;;3.74;77.30;101405.25;1827798;78;21799;-61
2022/01/09 00:50:17;;;;;;;28.00;10.03;;;;;;;3.73;77.35;101404.39;1831071;78;21050;-59
2022/01/09 00:52:45;;;;;;;24.45;9.08;;;;;;;3.71;77.42;101395.72;1793318;78;21546;-59
2022/01/09 00:55:14;;;;;;;27.42;9.90;;;;;;;3.70;77.42;101390.06;1786159;80;21098;-59
2022/01/09 00:57:43;;;;;;;32.05;11.30;;;;;;;3.68;77.44;101390.05;1780125;80;21614;-61
2022/01/09 01:00:13;;;;;;;35.30;11.28;;;;;;;3.67;77.47;101385.73;1780108;79;21138;-59
2022/01/09 01:02:43;;;;;;;30.43;10.35;;;;;;;3.68;77.42;101385.28;1780264;80;21067;-59
2022/01/09 01:05:12;;;;;;;32.28;11.18;;;;;;;3.68;77.42;101382.68;1780267;81;21161;-61
2022/01/09 01:07:41;;;;;;;31.07;12.40;;;;;;;3.69;77.45;101379.23;1818426;79;21157;-60
2022/01/09 01:10:10;;;;;;;34.35;12.05;;;;;;;3.73;77.42;101376.19;1819444;79;21111;-59
2022/01/09 01:12:39;;;;;;;29.07;10.95;;;;;;;3.74;77.44;101370.95;1819146;79;21122;-61
2022/01/09 01:15:09;;;;;;;32.80;11.05;;;;;;;3.74;77.48;101377.46;1819356;79;21073;-60
2022/01/09 01:17:38;;;;;;;36.73;13.10;;;;;;;3.73;77.52;101382.25;1816773;79;21090;-60
2022/01/09 01:20:07;;;;;;;33.42;12.45;;;;;;;3.70;77.68;101377.03;1795062;79;21141;-61
2022/01/09 01:22:36;;;;;;;32.83;11.78;;;;;;;3.74;77.67;101371.39;1818492;79;21041;-60
2022/01/09 01:25:06;;;;;;;32.28;11.18;;;;;;;3.77;77.59;101372.26;1779261;81;21207;-61
2022/01/09 01:27:35;;;;;;;36.77;13.38;;;;;;;3.80;77.54;101358.35;1820685;77;21033;-60
2022/01/09 01:30:05;;;;;;;28.98;10.18;;;;;;;3.82;77.50;101356.20;1779375;79;21106;-61
2022/01/09 01:32:33;;;;;;;34.63;13.05;;;;;;;3.82;77.45;101349.69;1818475;79;21041;-61
2022/01/09 01:35:02;;;;;;;34.78;11.63;;;;;;;3.83;77.44;101348.80;1779382;81;21129;-61
2022/01/09 01:37:31;;;;;;;25.65;10.60;;;;;;;3.82;77.41;101344.47;1831874;77;21022;-60
2022/01/09 01:40:00;;;;;;;33.02;12.53;;;;;;;3.83;77.39;101340.98;1853325;77;21160;-60
2022/01/09 01:42:28;;;;;;;29.27;10.30;;;;;;;3.82;77.42;101336.66;1853487;76;21128;-60
2022/01/09 01:44:57;;;;;;;27.30;11.25;;;;;;;3.83;77.37;101325.34;1853424;77;21049;-60
2022/01/09 01:47:26;;;;;;;36.42;12.47;;;;;;;3.83;77.35;101321.44;1853404;77;21022;-60
2022/01/09 01:49:55;;;;;;;32.70;12.18;;;;;;;3.84;77.38;101314.52;1853527;77;21025;-59
2022/01/09 01:52:34;;;;;;;31.65;11.80;;;;;;;3.86;77.40;101311.47;1839454;77;21058;-62
2022/01/09 01:54:59;;;;;;;28.50;10.38;;;;;;;3.88;77.36;101311.47;1820598;79;21148;-62
2022/01/09 01:57:29;;;;;;;29.60;11.48;;;;;;;3.88;77.37;101312.33;1821200;79;21074;-60
2022/01/09 01:59:58;;;;;;;35.28;11.85;;;;;;;3.87;77.35;101310.58;1821334;79;21199;-60
2022/01/09 02:02:26;;;;;;;31.82;12.53;;;;;;;3.85;77.39;101308.00;1831038;77;21062;-60
2022/01/09 02:04:55;;;;;;;31.50;10.70;;;;;;;3.85;77.40;101306.70;1853295;77;21096;-61
2022/01/09 02:07:25;;;;;;;36.98;12.10;;;;;;;3.86;77.39;101311.02;1853386;76;21058;-61
2022/01/09 02:09:54;;;;;;;35.83;13.18;;;;;;;3.85;77.39;101309.72;1853521;77;21464;-59
2022/01/09 02:12:23;;;;;;;40.70;12.10;;;;;;;3.84;77.41;101304.95;1853554;77;21489;-60
2022/01/09 02:14:52;;;;;;;26.60;10.13;;;;;;;3.84;77.38;101302.34;1853409;77;21542;-61
2022/01/09 02:17:22;;;;;;;36.65;13.13;;;;;;;3.86;77.34;101290.19;1841638;77;21125;-61
2022/01/09 02:19:58;;;;;;;39.25;13.65;;;;;;;3.89;77.34;101284.53;1821298;79;21097;-60
2022/01/09 02:22:31;;;;;;;38.78;13.48;;;;;;;3.86;77.36;101290.19;1821173;79;21030;-61
2022/01/09 02:24:58;;;;;;;37.85;13.28;;;;;;;3.89;77.46;101285.39;1820933;77;21148;-60
2022/01/09 02:27:27;;;;;;;33.25;11.63;;;;;;;3.90;77.53;101283.23;1825719;77;21042;-60
2022/01/09 02:29:56;;;;;;;36.42;13.65;;;;;;;3.93;77.47;101286.25;1821101;79;21050;-59
2022/01/09 02:32:25;;;;;;;36.98;13.72;;;;;;;3.93;77.46;101282.34;1821214;79;21142;-59
2022/01/09 02:34:54;;;;;;;32.50;11.88;;;;;;;3.92;77.50;101280.63;1821209;79;21094;-59
2022/01/09 02:37:23;;;;;;;38.10;12.37;;;;;;;3.93;77.50;101278.43;1821174;79;21136;-59
2022/01/09 02:39:53;;;;;;;32.98;12.58;;;;;;;3.92;77.54;101283.23;1821179;79;21127;-59
2022/01/09 02:42:25;;;;;;;38.33;13.18;;;;;;;3.90;77.56;101271.50;1826735;77;21104;-60
2022/01/09 02:44:59;;;;;;;33.45;11.90;;;;;;;3.90;77.54;101269.34;1826473;78;21475;-60
2022/01/09 02:47:25;;;;;;;42.23;12.75;;;;;;;3.90;77.55;101262.39;1826344;78;21053;-58
2022/01/09 02:49:55;;;;;;;32.25;11.40;;;;;;;3.88;77.57;101260.67;1831421;77;21144;-60
2022/01/09 02:52:34;;;;;;;34.15;12.82;;;;;;;3.86;77.59;101257.62;1859437;77;21021;-58
2022/01/09 02:55:14;;;;;;;35.80;13.48;;;;;;;3.84;77.69;101258.51;1858266;77;21135;-57
2022/01/09 02:57:45;;;;;;;38.63;13.00;;;;;;;3.79;77.80;101261.11;1843785;77;21491;-60
2022/01/09 03:00:25;;;;;;;33.25;11.85;;;;;;;3.73;77.87;101250.72;1826163;78;21078;-60
2022/01/09 03:02:55;;;;;;;33.70;13.18;;;;;;;3.72;77.92;101246.81;1826663;78;21069;-61
2022/01/09 03:05:24;;;;;;;40.40;13.08;;;;;;;3.68;77.98;101242.05;1826653;77;21081;-59
2022/01/09 03:07:53;;;;;;;40.45;13.78;;;;;;;3.67;78.05;101238.98;1828758;77;21576;-58
2022/01/09 03:10:23;;;;;;;33.48;11.97;;;;;;;3.65;78.11;101235.53;1826621;78;21599;-58
2022/01/09 03:12:56;;;;;;;43.33;14.55;;;;;;;3.62;78.26;101234.25;1826751;78;21483;-59
2022/01/09 03:15:26;;;;;;;34.55;12.43;;;;;;;3.60;78.30;101230.79;1838433;77;21074;-60
2022/01/09 03:17:55;;;;;;;42.53;14.75;;;;;;;3.60;78.33;101228.19;1859294;77;21453;-60
2022/01/09 03:20:26;;;;;;;31.27;12.00;;;;;;;3.57;78.34;101230.78;1859362;77;21460;-60
2022/01/09 03:25:45;;;;;;;48.45;15.93;;;;;;;3.48;78.65;101224.71;1830696;78;21328;-61
2022/01/09 03:28:13;;;;;;;43.35;14.28;;;;;;;3.38;79.01;101226.92;1817202;78;21107;-61
2022/01/09 03:30:42;;;;;;;41.85;12.98;;;;;;;3.37;79.11;101225.17;1847544;78;21030;-61
2022/01/09 03:33:11;;;;;;;42.62;13.38;;;;;;;3.41;79.01;101229.53;1807642;79;21170;-63
2022/01/09 03:35:39;;;;;;;40.28;13.03;;;;;;;3.46;78.89;101225.59;1807664;79;21102;-63
2022/01/09 03:38:08;;;;;;;37.08;13.28;;;;;;;3.48;78.79;101232.52;1807205;79;21699;-66
2022/01/09 03:40:37;;;;;;;46.00;14.78;;;;;;;3.48;78.80;101229.92;1807530;78;21145;-66
2022/01/09 03:43:06;;;;;;;43.40;15.03;;;;;;;3.46;78.84;101225.59;1807682;79;21194;-68
2022/01/09 03:45:35;;;;;;;38.38;14.25;;;;;;;3.43;78.90;101226.89;1807721;79;21165;-65
2022/01/09 03:48:04;;;;;;;50.38;13.83;;;;;;;3.46;78.79;101219.95;1806634;79;21111;-66
2022/01/09 03:50:33;;;;;;;48.08;16.05;;;;;;;3.50;78.67;101226.46;1807811;78;21027;-65
2022/01/09 03:53:04;;;;;;;51.73;13.18;;;;;;;3.52;78.62;101233.39;1807661;79;21119;-67
2022/01/09 03:55:32;;;;;;;33.92;11.93;;;;;;;3.48;78.77;101227.31;1807819;79;21098;-67
2022/01/09 03:58:01;;;;;;;40.40;11.78;;;;;;;3.46;78.76;101221.25;1806581;79;21116;-64
2022/01/09 04:00:30;;;;;;;36.60;11.50;;;;;;;3.44;78.84;101219.53;1807720;79;21091;-67
2022/01/09 04:02:58;;;;;;;34.80;13.08;;;;;;;3.42;78.92;101218.67;1807781;79;21082;-64
2022/01/09 04:05:27;;;;;;;48.52;11.85;;;;;;;3.38;78.96;101217.81;1807786;79;21099;-63
2022/01/09 04:07:56;;;;;;;45.88;12.88;;;;;;;3.38;78.93;101216.95;1807949;79;21149;-60
2022/01/09 04:10:28;;;;;;;59.70;14.75;;;;;;;3.39;78.94;101219.52;1806567;79;21165;-61
2022/01/09 04:12:59;;;;;;;57.65;17.55;;;;;;;3.40;78.90;101223.87;1807694;78;21063;-60
2022/01/09 04:15:27;;;;;;;59.50;15.70;;;;;;;3.42;78.86;101215.63;1807696;78;21570;-61
2022/01/09 04:17:57;;;;;;;54.67;12.98;;;;;;;3.47;78.81;101219.53;1807746;79;21084;-66
2022/01/09 04:20:33;;;;;;;79.87;13.78;;;;;;;3.48;78.77;101224.71;1806526;79;21171;-65
2022/01/09 04:23:02;;;;;;;64.77;13.43;;;;;;;3.50;78.73;101223.86;1804988;79;21047;-64
2022/01/09 04:25:31;;;;;;;90.10;13.68;;;;;;;3.46;78.77;101226.45;1808634;78;21164;-64
2022/01/09 04:28:00;;;;;;;41.30;12.20;;;;;;;3.42;78.87;101221.27;1763844;81;21436;-65
2022/01/09 04:30:29;;;;;;;50.05;12.75;;;;;;;3.38;79.02;101219.55;1793932;79;21115;-66
2022/01/09 04:32:58;;;;;;;45.73;12.03;;;;;;;3.38;79.06;101213.91;1763687;81;21579;-62
2022/01/09 04:35:27;;;;;;;52.25;13.15;;;;;;;3.38;79.06;101214.34;1793933;79;21099;-63
2022/01/09 04:37:56;;;;;;;46.53;11.68;;;;;;;3.39;79.02;101209.11;1763866;81;21080;-62
2022/01/09 04:40:25;;;;;;;52.65;13.72;;;;;;;3.42;78.96;101210.41;1793888;80;21178;-63
2022/01/09 04:42:57;;;;;;;101.58;15.23;;;;;;;3.38;79.03;101207.39;1763766;80;21637;-64
2022/01/09 04:45:25;;;;;;;59.98;14.85;;;;;;;3.33;79.14;101211.73;1793700;80;21068;-67
2022/01/09 04:48:00;;;;;;;51.85;12.37;;;;;;;3.33;79.27;101206.53;1763729;81;21175;-64
2022/01/09 04:50:30;;;;;;;51.02;13.38;;;;;;;3.34;79.24;101209.98;1793802;80;21538;-64
2022/01/09 04:53:04;;;;;;;49.93;13.35;;;;;;;3.33;79.21;101206.53;1763885;81;21084;-64
2022/01/09 04:55:32;;;;;;;51.60;11.55;;;;;;;3.32;79.26;101211.32;1793819;80;21162;-61
2022/01/09 04:58:02;;;;;;;95.20;14.80;;;;;;;3.29;79.25;101217.82;1794019;80;21195;-66
2022/01/09 05:00:31;;;;;;;47.00;11.50;;;;;;;3.27;79.29;101212.61;1763818;81;21075;-64
2022/01/09 05:02:59;;;;;;;68.80;13.60;;;;;;;3.27;79.28;101216.96;1793918;80;21142;-61
2022/01/09 05:05:28;;;;;;;48.17;11.00;;;;;;;3.27;79.28;101216.96;1793943;80;21199;-61
2022/01/09 05:07:57;;;;;;;44.33;9.10;;;;;;;3.26;79.33;101207.41;1779528;80;21094;-62
2022/01/09 05:10:26;;;;;;;54.35;11.60;;;;;;;3.25;79.37;101208.29;1779486;81;21066;-62
2022/01/09 05:12:55;;;;;;;82.25;11.97;;;;;;;3.24;79.37;101203.94;1779672;81;21066;-62
2022/01/09 05:15:24;;;;;;;87.20;12.60;;;;;;;3.23;79.35;101202.23;1779555;79;21505;-61
2022/01/09 05:17:58;;;;;;;60.55;12.95;;;;;;;3.23;79.31;101200.92;1779661;81;21473;-62
2022/01/09 05:20:23;;;;;;;79.95;12.15;;;;;;;3.25;79.28;101206.99;1779170;80;21067;-61
2022/01/09 05:22:52;;;;;;;65.17;11.08;;;;;;;3.26;79.22;101203.09;1779475;81;21157;-64
2022/01/09 05:25:21;;;;;;;83.95;11.33;;;;;;;3.27;79.20;101206.55;1795110;78;21558;-64
2022/01/09 05:27:50;;;;;;;42.33;10.93;;;;;;;3.26;79.18;101200.48;1810557;79;21597;-62
2022/01/09 05:30:19;;;;;;;94.45;12.33;;;;;;;3.24;79.17;101196.13;1842646;78;21107;-64
2022/01/09 05:32:47;;;;;;;70.60;11.05;;;;;;;3.25;79.21;101199.19;1843017;77;21073;-62
2022/01/09 05:35:16;;;;;;;50.33;9.95;;;;;;;3.25;79.18;101198.73;1842275;77;21065;-63
2022/01/09 05:37:45;;;;;;;76.77;12.13;;;;;;;3.28;79.14;101205.66;1842321;78;21073;-64
2022/01/09 05:40:14;;;;;;;97.57;14.45;;;;;;;3.27;79.14;101203.95;1809102;79;21244;-60
2022/01/09 05:42:43;;;;;;;49.50;11.60;;;;;;;3.26;79.21;101208.30;1838764;77;21110;-59
2022/01/09 05:45:12;;;;;;;50.65;10.58;;;;;;;3.31;79.20;101200.46;1804034;79;21176;-58
2022/01/09 05:47:41;;;;;;;47.33;10.43;;;;;;;3.33;79.17;101196.12;1811173;79;21078;-58
2022/01/09 05:50:10;;;;;;;48.73;9.23;;;;;;;3.32;79.13;101204.81;1796040;78;21105;-59
2022/01/09 05:52:39;;;;;;;27.95;9.73;;;;;;;3.32;79.14;101207.83;1774576;80;21067;-60
2022/01/09 05:55:08;;;;;;;58.13;9.50;;;;;;;3.30;79.13;101203.92;1780369;80;21071;-58
2022/01/09 05:57:37;;;;;;;84.03;11.12;;;;;;;3.26;79.24;101200.48;1780397;80;21072;-59
2022/01/09 06:00:07;;;;;;;89.40;11.22;;;;;;;3.22;79.40;101201.34;1811053;79;21164;-58
2022/01/09 06:02:35;;;;;;;27.55;8.28;;;;;;;3.21;79.48;101203.52;1811124;79;21040;-58
2022/01/09 06:05:07;;;;;;;55.12;10.93;;;;;;;3.22;79.53;101195.27;1752824;80;21137;-58
2022/01/09 06:07:37;;;;;;;36.88;8.73;;;;;;;3.21;79.59;101187.91;1783147;79;21121;-58
2022/01/09 06:10:06;;;;;;;37.80;8.75;;;;;;;3.19;79.73;101184.45;1774689;79;21498;-61
2022/01/09 06:12:36;;;;;;;58.38;9.78;;;;;;;3.18;79.76;101181.84;1780311;80;21051;-61
2022/01/09 06:15:05;;;;;;;24.50;8.38;;;;;;;3.18;79.81;101177.94;1779668;80;21515;-60
2022/01/09 06:17:37;;;;;;;28.50;5.67;;;;;;;3.20;79.79;101176.20;1780475;80;21077;-60
2022/01/09 06:20:08;;;;;;;21.35;5.75;;;;;;;3.15;79.89;101176.19;1779330;80;21149;-60
2022/01/09 06:22:37;;;;;;;69.58;9.20;;;;;;;3.15;79.92;101172.73;1811087;79;21061;-61
2022/01/09 06:25:07;;;;;;;38.95;8.70;;;;;;;3.14;79.97;101162.77;1800432;80;21596;-60
2022/01/09 06:27:36;;;;;;;40.23;7.78;;;;;;;3.13;80.13;101166.66;1790719;79;21072;-60
2022/01/09 06:30:07;;;;;;;39.60;7.17;;;;;;;3.19;80.05;101164.92;1790117;80;21069;-60
2022/01/09 06:32:36;;;;;;;129.35;12.47;;;;;;;3.21;79.95;101177.50;1790010;80;21057;-60
2022/01/09 06:35:06;;;;;;;46.70;8.58;;;;;;;3.23;79.84;101167.09;1789997;80;21089;-60
2022/01/09 06:37:35;;;;;;;84.87;9.95;;;;;;;3.27;79.73;101167.06;1790125;80;21049;-60
2022/01/09 06:40:05;;;;;;;30.48;7.37;;;;;;;3.32;79.67;101164.88;1789844;79;21089;-61
2022/01/09 06:42:34;;;;;;;32.55;8.63;;;;;;;3.29;79.61;101144.94;1791444;80;21052;-60
2022/01/09 06:45:03;;;;;;;75.85;13.72;;;;;;;3.27;79.63;101157.09;1787507;79;21139;-61
2022/01/09 06:47:32;;;;;;;29.23;8.25;;;;;;;3.22;79.82;101154.94;1789009;79;21487;-60
2022/01/09 06:50:01;;;;;;;63.70;10.72;;;;;;;3.23;79.82;101141.06;1790120;79;21072;-60
2022/01/09 06:52:30;;;;;;;49.40;9.43;;;;;;;3.18;79.84;101129.80;1791517;80;21637;-61
2022/01/09 06:55:03;;;;;;;63.38;11.30;;;;;;;3.14;79.83;101135.44;1791774;79;21272;-59
2022/01/09 06:57:31;;;;;;;54.03;12.18;;;;;;;3.15;79.75;101138.90;1790142;80;21052;-59
2022/01/09 07:00:00;;;;;;;64.90;11.33;;;;;;;3.16;79.72;101131.54;1789999;80;21065;-59
2022/01/09 07:02:28;;;;;;;49.33;10.55;;;;;;;3.13;79.74;101119.83;1809805;79;21194;-61
2022/01/09 07:04:57;;;;;;;56.85;11.08;;;;;;;3.11;79.75;101124.17;1820992;77;21068;-60
2022/01/09 07:07:26;;;;;;;74.15;11.35;;;;;;;3.11;79.73;101135.44;1795327;79;21071;-64
2022/01/09 07:09:55;;;;;;;64.60;10.13;;;;;;;3.08;79.84;101132.83;1789288;80;21057;-60
2022/01/09 07:12:24;;;;;;;50.65;10.05;;;;;;;3.13;79.77;101131.09;1805486;79;21146;-61
2022/01/09 07:14:52;;;;;;;38.67;8.85;;;;;;;3.14;79.70;101128.08;1821129;79;21060;-61
2022/01/09 07:17:21;;;;;;;88.62;10.65;;;;;;;3.09;79.71;101131.53;1806454;77;21065;-61
2022/01/09 07:19:50;;;;;;;38.35;8.40;;;;;;;3.07;79.71;101124.61;1789918;80;21029;-64
2022/01/09 07:22:19;;;;;;;100.67;12.68;;;;;;;3.08;79.66;101128.52;1790479;79;21609;-58
2022/01/09 07:24:48;;;;;;;47.78;10.40;;;;;;;3.08;79.59;101115.50;1790072;80;21097;-59
2022/01/09 07:27:17;;;;;;;39.30;10.78;;;;;;;3.15;79.57;101118.08;1792959;79;21117;-59
2022/01/09 07:29:46;;;;;;;89.47;12.53;;;;;;;3.18;79.48;101116.78;1795222;80;21528;-63
2022/01/09 07:32:15;;;;;;;47.05;11.00;;;;;;;3.21;79.40;101112.84;1793828;78;21123;-59
2022/01/09 07:34:44;;;;;;;75.45;11.00;;;;;;;3.25;79.36;101122.41;1793064;80;21191;-62
2022/01/09 07:37:12;;;;;;;66.95;11.93;;;;;;;3.29;79.32;101121.52;1793635;80;21066;-61
2022/01/09 07:39:41;;;;;;;32.38;8.75;;;;;;;3.31;79.21;101114.57;1796536;80;21135;-61
2022/01/09 07:42:10;;;;;;;30.77;9.35;;;;;;;3.35;79.13;101121.49;1819234;78;21186;-66
2022/01/09 07:44:40;;;;;;;49.88;9.90;;;;;;;3.37;79.10;101117.14;1793948;78;21130;-61
2022/01/09 07:47:08;;;;;;;47.95;11.55;;;;;;;3.40;79.02;101111.94;1793733;78;21128;-65
2022/01/09 07:49:37;;;;;;;65.05;16.55;;;;;;;3.47;78.99;101109.74;1795156;80;21112;-62
2022/01/09 07:52:07;;;;;;;37.80;13.15;;;;;;;3.54;78.93;101103.20;1793860;79;21147;-64
2022/01/09 07:54:36;;;;;;;38.20;10.55;;;;;;;3.61;78.87;101103.61;1793509;80;21245;-64
2022/01/09 07:57:05;;;;;;;44.10;11.57;;;;;;;3.63;78.85;101107.95;1793189;79;21133;-63
2022/01/09 07:59:34;;;;;;;62.43;13.72;;;;;;;3.65;78.85;101102.30;1793196;80;21098;-61
2022/01/09 08:02:03;;;;;;;44.50;14.83;;;;;;;3.66;78.75;101095.34;1793747;78;21085;-61
2022/01/09 08:04:32;;;;;;;53.20;17.32;;;;;;;3.72;78.67;101090.09;1793139;79;21097;-62
2022/01/09 08:07:00;;;;;;;54.25;14.33;;;;;;;3.83;78.61;101083.53;1806764;78;21523;-62
2022/01/09 08:09:29;;;;;;;46.33;17.55;;;;;;;3.98;78.57;101076.91;1794644;78;21200;-59
2022/01/09 08:11:58;;;;;;;53.65;18.05;;;;;;;4.01;78.41;101070.83;1793241;79;21578;-58
2022/01/09 08:14:27;;;;;;;34.53;10.38;;;;;;;4.12;78.35;101067.71;1796592;80;21058;-58
2022/01/09 08:16:56;;;;;;;25.60;9.25;;;;;;;4.09;78.24;101065.11;1796424;78;21059;-58
2022/01/09 08:19:25;;;;;;;24.32;10.65;;;;;;;4.10;78.16;101070.77;1796689;80;21566;-59
2022/01/09 08:21:54;;;;;;;48.20;11.25;;;;;;;4.10;78.09;101063.40;1795746;80;21590;-58
2022/01/09 08:24:22;;;;;;;29.07;9.98;;;;;;;4.10;77.99;101057.73;1795035;80;21119;-61
2022/01/09 08:26:51;;;;;;;33.58;9.25;;;;;;;4.09;77.91;101044.27;1795330;79;21168;-60
2022/01/09 08:29:20;;;;;;;32.67;9.93;;;;;;;4.08;77.86;101041.25;1794958;79;21102;-59
2022/01/09 08:31:49;;;;;;;38.60;12.78;;;;;;;4.08;77.80;101035.16;1795643;80;21054;-59
2022/01/09 08:34:19;;;;;;;42.78;14.47;;;;;;;4.10;77.78;101030.83;1795049;80;21469;-59
2022/01/09 08:36:47;;;;;;;40.48;11.68;;;;;;;4.10;77.79;101023.00;1795887;78;21100;-58
2022/01/09 08:39:18;;;;;;;40.70;14.55;;;;;;;4.14;77.77;101021.65;1795745;80;21057;-60
2022/01/09 08:41:46;;;;;;;37.30;13.38;;;;;;;4.18;77.82;101018.13;1796176;80;21092;-59
2022/01/09 08:44:15;;;;;;;13.50;5.33;;;;;;;4.28;77.78;101007.63;1796823;78;21132;-60
2022/01/09 08:46:44;;;;;;;31.93;7.15;;;;;;;4.36;77.72;101002.78;1796432;78;21567;-60
2022/01/09 08:49:12;;;;;;;24.45;7.25;;;;;;;4.32;77.45;101000.23;1794903;80;21129;-60
2022/01/09 08:51:41;;;;;;;16.93;5.95;;;;;;;4.36;77.57;100988.89;1795384;78;21147;-58
2022/01/09 08:54:10;;;;;;;12.03;4.70;;;;;;;4.51;77.47;100990.03;1795086;80;21128;-60
2022/01/09 08:56:39;;;;;;;14.55;6.22;;;;;;;4.56;77.23;100989.55;1795051;80;21140;-61
2022/01/09 08:59:08;;;;;;;13.00;6.08;;;;;;;4.55;77.06;100977.38;1795574;80;21038;-60
2022/01/09 09:01:37;;;;;;;12.28;5.33;;;;;;;4.61;76.96;100971.23;1810403;78;21062;-61
2022/01/09 09:04:06;;;;;;;16.87;7.17;;;;;;;4.73;76.79;100956.76;1840586;78;21054;-60
2022/01/09 09:06:35;;;;;;;16.60;7.00;;;;;;;4.91;76.56;100950.92;1825663;78;21082;-60
2022/01/09 09:09:04;;;;;;;24.72;9.98;;;;;;;5.32;76.19;100949.51;1795138;80;21057;-60
2022/01/09 09:11:33;;;;;;;17.77;7.30;;;;;;;5.95;75.09;100942.00;1785022;80;21495;-60
2022/01/09 09:14:03;;;;;;;15.08;6.00;;;;;;;6.49;73.78;100938.04;1792974;80;21084;-60
2022/01/09 09:16:33;;;;;;;18.05;6.55;;;;;;;6.79;72.78;100925.24;1794649;80;21104;-59
2022/01/09 09:19:02;;;;;;;16.20;7.20;;;;;;;7.05;72.29;100918.14;1796674;80;21120;-59
2022/01/09 09:21:31;;;;;;;14.95;5.95;;;;;;;7.24;72.00;100918.59;1796312;78;21504;-62
2022/01/09 09:23:59;;;;;;;15.40;6.97;;;;;;;7.44;71.61;100910.73;1796739;80;21065;-59
2022/01/09 09:26:28;;;;;;;13.72;6.90;;;;;;;7.52;71.43;100914.03;1777831;80;21065;-58
2022/01/09 09:28:57;;;;;;;22.95;9.45;;;;;;;7.42;71.70;100904.67;1776146;79;21161;-59
2022/01/09 09:31:26;;;;;;;27.25;13.18;;;;;;;7.31;71.79;100896.61;1752495;81;21083;-62
2022/01/09 09:33:54;;;;;;;35.83;16.37;;;;;;;7.19;72.03;100892.09;1782281;79;21536;-59
2022/01/09 09:36:24;;;;;;;17.95;9.05;;;;;;;7.08;72.35;100894.52;1782308;80;21073;-61
2022/01/09 09:38:53;;;;;;;21.35;10.30;;;;;;;6.99;72.61;100885.98;1785737;79;21044;-60
2022/01/09 09:41:25;;;;;;;25.15;11.63;;;;;;;6.99;72.73;100882.05;1797449;80;21771;-61
2022/01/09 09:43:55;;;;;;;29.40;12.65;;;;;;;7.02;72.86;100888.09;1829152;78;21558;-62
2022/01/09 09:46:25;;;;;;;25.48;12.68;;;;;;;7.07;72.91;100887.55;1868502;76;21508;-62
2022/01/09 09:48:55;;;;;;;32.17;15.28;;;;;;;7.11;72.96;100883.11;1847941;78;21010;-63
2022/01/09 09:51:28;;;;;;;21.17;10.38;;;;;;;7.06;72.88;100873.17;1847943;78;21445;-61
2022/01/09 09:53:58;;;;;;;18.40;7.67;;;;;;;7.11;72.97;100884.41;1848068;78;21588;-62
2022/01/09 09:56:27;;;;;;;24.65;9.05;;;;;;;7.15;72.71;100887.37;1836587;78;21066;-61
2022/01/09 09:59:00;;;;;;;20.50;9.10;;;;;;;7.16;72.98;100876.02;1817785;79;21086;-64
2022/01/09 10:01:34;;;;;;;19.92;8.53;;;;;;;7.13;72.89;100881.31;1817757;78;21062;-62
2022/01/09 10:04:05;;;;;;;17.25;6.62;;;;;;;7.18;72.89;100870.29;1817599;79;21046;-63
2022/01/09 10:06:43;;;;;;;17.77;7.03;;;;;;;7.14;72.70;100870.81;1817421;79;21058;-62
2022/01/09 10:09:15;;;;;;;18.20;7.55;;;;;;;7.11;72.76;100872.17;1817696;79;21113;-63
2022/01/09 10:11:47;;;;;;;20.97;8.55;;;;;;;7.12;72.95;100873.06;1814736;79;21512;-62
2022/01/09 10:14:27;;;;;;;16.35;8.30;;;;;;;7.13;73.06;100861.67;1817306;78;21567;-62
2022/01/09 10:17:18;;;;;;;18.45;7.20;;;;;;;7.21;73.08;100863.69;1835121;78;21122;-57
2022/01/09 10:19:53;;;;;;;16.50;7.35;;;;;;;7.28;73.04;100860.00;1847945;76;21125;-58
2022/01/09 10:22:32;;;;;;;14.75;6.80;;;;;;;7.35;72.97;100866.81;1846312;78;21029;-58
2022/01/09 10:25:03;;;;;;;16.42;7.95;;;;;;;7.45;72.78;100862.66;1846353;76;21025;-62
2022/01/09 10:27:35;;;;;;;17.27;6.97;;;;;;;7.50;72.61;100860.80;1803974;79;21136;-62
2022/01/09 10:30:08;;;;;;;14.87;6.40;;;;;;;7.55;72.62;100860.25;1819363;77;21147;-63
2022/01/09 10:32:37;;;;;;;16.27;7.40;;;;;;;7.57;72.55;100851.89;1832567;78;21041;-64
2022/01/09 10:35:15;;;;;;;14.83;6.10;;;;;;;7.62;72.44;100841.31;1834735;77;21488;-62
2022/01/09 10:37:47;;;;;;;15.05;8.68;;;;;;;7.70;72.30;100845.44;1835598;78;21618;-62
2022/01/09 10:40:22;;;;;;;17.70;8.00;;;;;;;7.74;72.04;100830.03;1844685;78;21070;-62
2022/01/09 10:43:06;;;;;;;14.65;6.90;;;;;;;7.71;72.10;100836.69;1844653;78;21132;-65
2022/01/09 10:45:40;;;;;;;17.35;8.50;;;;;;;7.68;72.32;100828.89;1844237;78;21120;-66
2022/01/09 10:48:12;;;;;;;18.95;8.75;;;;;;;7.73;72.30;100828.34;1812820;79;21039;-65
2022/01/09 10:50:43;;;;;;;20.60;9.40;;;;;;;7.79;72.17;100829.94;1814050;78;21046;-71
2022/01/09 10:53:24;;;;;;;20.10;8.88;;;;;;;7.80;72.10;100826.85;1834875;78;21159;-63
2022/01/09 10:56:05;;;;;;;27.58;9.28;;;;;;;7.82;72.12;100819.38;1834793;78;21613;-63
2022/01/09 10:58:36;;;;;;;21.30;9.43;;;;;;;7.84;72.25;100815.38;1834779;78;21154;-61
2022/01/09 11:01:14;;;;;;;18.87;9.43;;;;;;;7.88;72.46;100815.73;1835501;78;21100;-61
2022/01/09 11:03:45;;;;;;;20.68;10.10;;;;;;;7.91;72.44;100820.88;1836737;77;21097;-61
2022/01/09 11:06:16;;;;;;;25.75;9.35;;;;;;;7.92;72.38;100816.05;1842457;76;21042;-61
2022/01/09 11:08:45;;;;;;;19.17;9.68;;;;;;;7.95;72.35;100809.86;1844653;78;21077;-62
2022/01/09 11:11:30;;;;;;;17.20;8.03;;;;;;;7.96;72.31;100808.97;1844805;78;21534;-61
2022/01/09 11:13:54;;;;;;;18.92;8.28;;;;;;;7.96;72.30;100809.82;1843345;77;21536;-63
2022/01/09 11:16:37;;;;;;;22.15;9.83;;;;;;;7.97;72.39;100802.38;1844793;78;21050;-61
2022/01/09 11:19:08;;;;;;;18.92;9.45;;;;;;;7.97;72.41;100795.82;1844835;78;21046;-63
2022/01/09 11:21:39;;;;;;;20.72;9.05;;;;;;;8.01;72.46;100800.07;1844187;78;21050;-61
2022/01/09 11:24:13;;;;;;;21.70;9.93;;;;;;;8.07;72.46;100801.20;1844737;76;21042;-61
2022/01/09 11:26:51;;;;;;;20.80;9.78;;;;;;;8.11;72.45;100789.75;1844209;77;21074;-62
2022/01/09 11:29:22;;;;;;;16.50;8.23;;;;;;;8.14;72.46;100784.00;1845273;77;21066;-60
2022/01/09 11:31:54;;;;;;;32.10;9.05;;;;;;;8.17;72.49;100787.83;1831269;78;21520;-60
2022/01/09 11:34:47;;;;;;;43.28;14.93;;;;;;;8.20;72.54;100781.20;1815216;79;21166;-60